sensor_id;sensor_type;location;lat;lon;timestamp;P1;durP1;ratioP1;P2;durP2;ratioP2
1308;SDS011;647;48.840;9.314;2022-07-06T00:00:34;60.13;;;4.00;;
1308;SDS011;647;48.840;9.314;2022-07-06T00:03:01;61.30;;;4.20;;
1308;SDS011;647;48.840;9.314;2022-07-06T00:05:29;61.40;;;4.90;;
1308;SDS011;647;48.840;9.314;2022-07-06T00:07:56;62.27;;;5.00;;
1308;SDS011;647;48.840;9.314;2022-07-06T00:10:25;60.30;;;3.80;;
1308;SDS011;647;48.840;9.314;2022-07-06T00:12:54;59.60;;;3.83;;
1308;SDS011;647;48.840;9.314;2022-07-06T00:15:21;60.40;;;4.50;;
1308;SDS011;647;48.840;9.314;2022-07-06T00:17:49;60.97;;;4.70;;
1308;SDS011;647;48.840;9.314;2022-07-06T00:20:16;60.43;;;4.30;;
1308;SDS011;647;48.840;9.314;2022-07-06T00:22:43;61.10;;;5.00;;
1308;SDS011;647;48.840;9.314;2022-07-06T00:25:11;60.33;;;4.47;;
1308;SDS011;647;48.840;9.314;2022-07-06T00:27:40;61.13;;;4.53;;
1308;SDS011;647;48.840;9.314;2022-07-06T00:30:07;64.27;;;4.27;;
1308;SDS011;647;48.840;9.314;2022-07-06T00:32:35;60.37;;;4.73;;
1308;SDS011;647;48.840;9.314;2022-07-06T00:35:03;59.90;;;4.00;;
1308;SDS011;647;48.840;9.314;2022-07-06T00:37:30;60.90;;;4.60;;
1308;SDS011;647;48.840;9.314;2022-07-06T00:40:06;59.43;;;3.90;;
1308;SDS011;647;48.840;9.314;2022-07-06T00:42:40;64.90;;;4.67;;
1308;SDS011;647;48.840;9.314;2022-07-06T00:45:07;60.60;;;4.37;;
1308;SDS011;647;48.840;9.314;2022-07-06T00:47:35;62.33;;;4.53;;
1308;SDS011;647;48.840;9.314;2022-07-06T00:50:03;59.87;;;4.13;;
1308;SDS011;647;48.840;9.314;2022-07-06T00:52:48;61.70;;;4.17;;
1308;SDS011;647;48.840;9.314;2022-07-06T00:55:17;60.10;;;4.43;;
1308;SDS011;647;48.840;9.314;2022-07-06T00:57:46;61.07;;;4.30;;
1308;SDS011;647;48.840;9.314;2022-07-06T01:00:15;61.00;;;5.07;;
1308;SDS011;647;48.840;9.314;2022-07-06T01:02:43;59.27;;;3.83;;
1308;SDS011;647;48.840;9.314;2022-07-06T01:05:11;59.80;;;4.03;;
1308;SDS011;647;48.840;9.314;2022-07-06T01:07:39;62.43;;;4.60;;
1308;SDS011;647;48.840;9.314;2022-07-06T01:10:09;61.23;;;4.50;;
1308;SDS011;647;48.840;9.314;2022-07-06T01:12:37;59.93;;;4.10;;
1308;SDS011;647;48.840;9.314;2022-07-06T01:15:09;60.17;;;4.47;;
1308;SDS011;647;48.840;9.314;2022-07-06T01:17:37;59.90;;;4.43;;
1308;SDS011;647;48.840;9.314;2022-07-06T01:20:09;59.60;;;3.93;;
1308;SDS011;647;48.840;9.314;2022-07-06T01:22:36;63.07;;;4.90;;
1308;SDS011;647;48.840;9.314;2022-07-06T01:25:04;60.10;;;4.20;;
1308;SDS011;647;48.840;9.314;2022-07-06T01:27:32;60.23;;;4.67;;
1308;SDS011;647;48.840;9.314;2022-07-06T01:30:01;60.40;;;4.70;;
1308;SDS011;647;48.840;9.314;2022-07-06T01:32:29;60.93;;;4.80;;
1308;SDS011;647;48.840;9.314;2022-07-06T01:34:58;60.20;;;4.50;;
1308;SDS011;647;48.840;9.314;2022-07-06T01:37:27;61.20;;;4.83;;
1308;SDS011;647;48.840;9.314;2022-07-06T01:39:57;63.03;;;4.23;;
1308;SDS011;647;48.840;9.314;2022-07-06T01:42:24;60.07;;;4.03;;
1308;SDS011;647;48.840;9.314;2022-07-06T01:44:54;59.90;;;4.30;;
1308;SDS011;647;48.840;9.314;2022-07-06T01:47:21;60.90;;;4.40;;
1308;SDS011;647;48.840;9.314;2022-07-06T01:49:49;60.50;;;4.87;;
1308;SDS011;647;48.840;9.314;2022-07-06T01:52:17;60.20;;;4.03;;
1308;SDS011;647;48.840;9.314;2022-07-06T01:54:45;59.80;;;4.13;;
1308;SDS011;647;48.840;9.314;2022-07-06T01:57:13;59.70;;;4.13;;
1308;SDS011;647;48.840;9.314;2022-07-06T01:59:40;60.20;;;4.17;;
1308;SDS011;647;48.840;9.314;2022-07-06T02:02:07;59.70;;;4.20;;
1308;SDS011;647;48.840;9.314;2022-07-06T02:04:36;61.50;;;4.40;;
1308;SDS011;647;48.840;9.314;2022-07-06T02:07:04;60.20;;;4.40;;
1308;SDS011;647;48.840;9.314;2022-07-06T02:09:32;59.50;;;3.77;;
1308;SDS011;647;48.840;9.314;2022-07-06T02:12:02;59.80;;;3.87;;
1308;SDS011;647;48.840;9.314;2022-07-06T02:14:33;59.60;;;4.10;;
1308;SDS011;647;48.840;9.314;2022-07-06T02:17:01;61.37;;;4.13;;
1308;SDS011;647;48.840;9.314;2022-07-06T02:19:28;59.57;;;3.77;;
1308;SDS011;647;48.840;9.314;2022-07-06T02:21:56;60.00;;;3.80;;
1308;SDS011;647;48.840;9.314;2022-07-06T02:24:23;60.17;;;4.60;;
1308;SDS011;647;48.840;9.314;2022-07-06T02:26:51;59.30;;;4.10;;
1308;SDS011;647;48.840;9.314;2022-07-06T02:29:20;59.60;;;4.20;;
1308;SDS011;647;48.840;9.314;2022-07-06T02:31:47;61.40;;;4.47;;
1308;SDS011;647;48.840;9.314;2022-07-06T02:34:15;59.23;;;4.17;;
1308;SDS011;647;48.840;9.314;2022-07-06T02:36:42;60.10;;;4.60;;
1308;SDS011;647;48.840;9.314;2022-07-06T02:39:09;59.47;;;4.20;;
1308;SDS011;647;48.840;9.314;2022-07-06T02:41:36;59.70;;;4.20;;
1308;SDS011;647;48.840;9.314;2022-07-06T02:44:03;61.40;;;4.77;;
1308;SDS011;647;48.840;9.314;2022-07-06T02:46:32;60.87;;;4.27;;
1308;SDS011;647;48.840;9.314;2022-07-06T02:48:59;60.00;;;4.33;;
1308;SDS011;647;48.840;9.314;2022-07-06T02:51:28;60.80;;;4.27;;
1308;SDS011;647;48.840;9.314;2022-07-06T02:53:55;59.70;;;4.23;;
1308;SDS011;647;48.840;9.314;2022-07-06T02:56:25;60.40;;;4.07;;
1308;SDS011;647;48.840;9.314;2022-07-06T02:58:53;59.30;;;4.13;;
1308;SDS011;647;48.840;9.314;2022-07-06T03:01:20;61.30;;;4.60;;
1308;SDS011;647;48.840;9.314;2022-07-06T03:03:52;60.40;;;4.73;;
1308;SDS011;647;48.840;9.314;2022-07-06T03:06:19;59.70;;;4.27;;
1308;SDS011;647;48.840;9.314;2022-07-06T03:08:46;59.83;;;3.80;;
1308;SDS011;647;48.840;9.314;2022-07-06T03:11:13;60.00;;;4.00;;
1308;SDS011;647;48.840;9.314;2022-07-06T03:13:41;59.90;;;4.27;;
1308;SDS011;647;48.840;9.314;2022-07-06T03:16:08;60.03;;;4.20;;
1308;SDS011;647;48.840;9.314;2022-07-06T03:18:35;61.30;;;4.43;;
1308;SDS011;647;48.840;9.314;2022-07-06T03:21:05;60.27;;;4.00;;
1308;SDS011;647;48.840;9.314;2022-07-06T03:23:33;59.50;;;3.90;;
1308;SDS011;647;48.840;9.314;2022-07-06T03:26:00;63.17;;;4.10;;
1308;SDS011;647;48.840;9.314;2022-07-06T03:28:27;59.40;;;4.17;;
1308;SDS011;647;48.840;9.314;2022-07-06T03:30:56;60.40;;;4.40;;
1308;SDS011;647;48.840;9.314;2022-07-06T03:33:23;60.13;;;3.80;;
1308;SDS011;647;48.840;9.314;2022-07-06T03:35:50;60.57;;;4.90;;
1308;SDS011;647;48.840;9.314;2022-07-06T03:38:19;62.70;;;5.27;;
1308;SDS011;647;48.840;9.314;2022-07-06T03:40:46;61.07;;;5.20;;
1308;SDS011;647;48.840;9.314;2022-07-06T03:43:13;60.77;;;4.80;;
1308;SDS011;647;48.840;9.314;2022-07-06T03:45:41;60.57;;;4.80;;
1308;SDS011;647;48.840;9.314;2022-07-06T03:48:09;60.60;;;4.53;;
1308;SDS011;647;48.840;9.314;2022-07-06T03:50:37;60.23;;;4.27;;
1308;SDS011;647;48.840;9.314;2022-07-06T03:53:06;60.20;;;4.70;;
1308;SDS011;647;48.840;9.314;2022-07-06T03:55:43;60.13;;;4.63;;
1308;SDS011;647;48.840;9.314;2022-07-06T03:58:31;60.17;;;4.23;;
1308;SDS011;647;48.840;9.314;2022-07-06T04:01:01;60.30;;;4.57;;
1308;SDS011;647;48.840;9.314;2022-07-06T04:03:29;59.67;;;4.30;;
1308;SDS011;647;48.840;9.314;2022-07-06T04:05:59;60.20;;;3.97;;
1308;SDS011;647;48.840;9.314;2022-07-06T04:08:26;62.57;;;4.23;;
1308;SDS011;647;48.840;9.314;2022-07-06T04:10:55;60.27;;;4.10;;
1308;SDS011;647;48.840;9.314;2022-07-06T04:13:22;61.73;;;4.10;;
1308;SDS011;647;48.840;9.314;2022-07-06T04:15:50;72.10;;;4.50;;
1308;SDS011;647;48.840;9.314;2022-07-06T04:18:17;60.77;;;4.70;;
1308;SDS011;647;48.840;9.314;2022-07-06T04:20:45;59.97;;;5.30;;
1308;SDS011;647;48.840;9.314;2022-07-06T04:23:12;59.40;;;4.17;;
1308;SDS011;647;48.840;9.314;2022-07-06T04:25:40;62.37;;;4.40;;
1308;SDS011;647;48.840;9.314;2022-07-06T04:28:09;60.53;;;4.40;;
1308;SDS011;647;48.840;9.314;2022-07-06T04:30:44;59.00;;;4.17;;
1308;SDS011;647;48.840;9.314;2022-07-06T04:33:11;69.07;;;4.63;;
1308;SDS011;647;48.840;9.314;2022-07-06T04:35:38;65.27;;;4.40;;
1308;SDS011;647;48.840;9.314;2022-07-06T04:38:06;60.47;;;4.37;;
1308;SDS011;647;48.840;9.314;2022-07-06T04:40:34;60.90;;;4.00;;
1308;SDS011;647;48.840;9.314;2022-07-06T04:43:04;59.80;;;4.17;;
1308;SDS011;647;48.840;9.314;2022-07-06T04:45:33;60.07;;;4.37;;
1308;SDS011;647;48.840;9.314;2022-07-06T04:48:01;60.00;;;4.13;;
1308;SDS011;647;48.840;9.314;2022-07-06T04:50:28;59.67;;;4.43;;
1308;SDS011;647;48.840;9.314;2022-07-06T04:52:56;61.07;;;4.60;;
1308;SDS011;647;48.840;9.314;2022-07-06T04:55:24;60.37;;;4.70;;
1308;SDS011;647;48.840;9.314;2022-07-06T04:57:51;60.40;;;4.33;;
1308;SDS011;647;48.840;9.314;2022-07-06T05:00:18;60.30;;;4.70;;
1308;SDS011;647;48.840;9.314;2022-07-06T05:02:47;59.60;;;4.20;;
1308;SDS011;647;48.840;9.314;2022-07-06T05:05:16;60.33;;;4.30;;
1308;SDS011;647;48.840;9.314;2022-07-06T05:07:44;59.50;;;4.07;;
1308;SDS011;647;48.840;9.314;2022-07-06T05:10:11;62.33;;;4.30;;
1308;SDS011;647;48.840;9.314;2022-07-06T05:12:39;59.43;;;3.90;;
1308;SDS011;647;48.840;9.314;2022-07-06T05:15:07;59.80;;;4.40;;
1308;SDS011;647;48.840;9.314;2022-07-06T05:17:35;60.47;;;4.53;;
1308;SDS011;647;48.840;9.314;2022-07-06T05:20:07;59.90;;;4.27;;
1308;SDS011;647;48.840;9.314;2022-07-06T05:22:35;60.07;;;4.43;;
1308;SDS011;647;48.840;9.314;2022-07-06T05:25:03;61.70;;;4.40;;
1308;SDS011;647;48.840;9.314;2022-07-06T05:27:30;60.60;;;3.97;;
1308;SDS011;647;48.840;9.314;2022-07-06T05:29:57;59.40;;;4.23;;
1308;SDS011;647;48.840;9.314;2022-07-06T05:32:26;59.87;;;4.70;;
1308;SDS011;647;48.840;9.314;2022-07-06T05:34:54;60.40;;;4.63;;
1308;SDS011;647;48.840;9.314;2022-07-06T05:37:24;59.87;;;4.20;;
1308;SDS011;647;48.840;9.314;2022-07-06T05:39:51;60.67;;;4.40;;
1308;SDS011;647;48.840;9.314;2022-07-06T05:42:19;60.27;;;4.90;;
1308;SDS011;647;48.840;9.314;2022-07-06T05:44:47;59.40;;;3.90;;
1308;SDS011;647;48.840;9.314;2022-07-06T05:47:14;60.33;;;4.80;;
1308;SDS011;647;48.840;9.314;2022-07-06T05:49:59;63.50;;;5.17;;
1308;SDS011;647;48.840;9.314;2022-07-06T05:52:39;59.67;;;4.57;;
1308;SDS011;647;48.840;9.314;2022-07-06T05:55:07;59.10;;;4.33;;
1308;SDS011;647;48.840;9.314;2022-07-06T05:57:35;60.07;;;4.30;;
1308;SDS011;647;48.840;9.314;2022-07-06T06:00:03;60.33;;;4.50;;
1308;SDS011;647;48.840;9.314;2022-07-06T06:02:37;60.20;;;4.23;;
1308;SDS011;647;48.840;9.314;2022-07-06T06:05:06;59.47;;;3.87;;
1308;SDS011;647;48.840;9.314;2022-07-06T06:07:34;60.40;;;5.03;;
1308;SDS011;647;48.840;9.314;2022-07-06T06:10:03;61.23;;;4.70;;
1308;SDS011;647;48.840;9.314;2022-07-06T06:12:33;58.97;;;3.77;;
1308;SDS011;647;48.840;9.314;2022-07-06T06:15:02;60.37;;;4.07;;
1308;SDS011;647;48.840;9.314;2022-07-06T06:17:29;60.47;;;4.40;;
1308;SDS011;647;48.840;9.314;2022-07-06T06:19:56;61.50;;;3.97;;
1308;SDS011;647;48.840;9.314;2022-07-06T06:22:24;59.60;;;4.30;;
1308;SDS011;647;48.840;9.314;2022-07-06T06:24:52;61.57;;;4.37;;
1308;SDS011;647;48.840;9.314;2022-07-06T06:27:22;59.70;;;4.30;;
1308;SDS011;647;48.840;9.314;2022-07-06T06:29:49;58.70;;;3.97;;
1308;SDS011;647;48.840;9.314;2022-07-06T06:32:17;59.77;;;3.67;;
1308;SDS011;647;48.840;9.314;2022-07-06T06:34:44;59.60;;;3.67;;
1308;SDS011;647;48.840;9.314;2022-07-06T06:37:12;61.40;;;4.10;;
1308;SDS011;647;48.840;9.314;2022-07-06T06:39:40;59.77;;;3.97;;
1308;SDS011;647;48.840;9.314;2022-07-06T06:42:08;67.40;;;4.33;;
1308;SDS011;647;48.840;9.314;2022-07-06T06:44:39;59.30;;;3.90;;
1308;SDS011;647;48.840;9.314;2022-07-06T06:47:09;58.90;;;3.97;;
1308;SDS011;647;48.840;9.314;2022-07-06T06:49:37;60.37;;;4.40;;
1308;SDS011;647;48.840;9.314;2022-07-06T06:52:04;60.20;;;4.20;;
1308;SDS011;647;48.840;9.314;2022-07-06T06:54:31;61.00;;;4.07;;
1308;SDS011;647;48.840;9.314;2022-07-06T06:57:01;61.60;;;4.63;;
1308;SDS011;647;48.840;9.314;2022-07-06T06:59:29;59.10;;;3.03;;
1308;SDS011;647;48.840;9.314;2022-07-06T07:01:57;59.60;;;4.00;;
1308;SDS011;647;48.840;9.314;2022-07-06T07:04:25;60.63;;;3.73;;
1308;SDS011;647;48.840;9.314;2022-07-06T07:06:54;59.20;;;3.90;;
1308;SDS011;647;48.840;9.314;2022-07-06T07:09:21;59.70;;;3.57;;
1308;SDS011;647;48.840;9.314;2022-07-06T07:11:49;59.57;;;3.97;;
1308;SDS011;647;48.840;9.314;2022-07-06T07:14:16;59.80;;;3.90;;
1308;SDS011;647;48.840;9.314;2022-07-06T07:16:44;65.40;;;3.60;;
1308;SDS011;647;48.840;9.314;2022-07-06T07:19:12;58.70;;;3.60;;
1308;SDS011;647;48.840;9.314;2022-07-06T07:21:40;60.27;;;3.90;;
1308;SDS011;647;48.840;9.314;2022-07-06T07:24:11;60.00;;;4.03;;
1308;SDS011;647;48.840;9.314;2022-07-06T07:26:38;60.60;;;3.43;;
1308;SDS011;647;48.840;9.314;2022-07-06T07:29:06;59.50;;;3.50;;
1308;SDS011;647;48.840;9.314;2022-07-06T07:31:33;58.80;;;3.67;;
1308;SDS011;647;48.840;9.314;2022-07-06T07:34:00;59.40;;;3.53;;
1308;SDS011;647;48.840;9.314;2022-07-06T07:36:29;59.00;;;3.73;;
1308;SDS011;647;48.840;9.314;2022-07-06T07:38:56;59.70;;;3.70;;
1308;SDS011;647;48.840;9.314;2022-07-06T07:41:24;63.53;;;4.10;;
1308;SDS011;647;48.840;9.314;2022-07-06T07:43:51;59.50;;;3.53;;
1308;SDS011;647;48.840;9.314;2022-07-06T07:46:19;60.37;;;3.60;;
1308;SDS011;647;48.840;9.314;2022-07-06T07:48:47;59.70;;;3.73;;
1308;SDS011;647;48.840;9.314;2022-07-06T07:51:14;63.20;;;4.00;;
1308;SDS011;647;48.840;9.314;2022-07-06T07:53:43;59.40;;;3.87;;
1308;SDS011;647;48.840;9.314;2022-07-06T07:56:10;62.17;;;3.70;;
1308;SDS011;647;48.840;9.314;2022-07-06T07:58:37;58.57;;;3.80;;
1308;SDS011;647;48.840;9.314;2022-07-06T08:01:05;58.67;;;3.67;;
1308;SDS011;647;48.840;9.314;2022-07-06T08:03:32;60.70;;;3.70;;
1308;SDS011;647;48.840;9.314;2022-07-06T08:05:59;66.53;;;4.73;;
1308;SDS011;647;48.840;9.314;2022-07-06T08:08:26;62.57;;;3.87;;
1308;SDS011;647;48.840;9.314;2022-07-06T08:10:56;61.60;;;4.20;;
1308;SDS011;647;48.840;9.314;2022-07-06T08:13:23;60.40;;;4.40;;
1308;SDS011;647;48.840;9.314;2022-07-06T08:15:50;60.07;;;3.93;;
1308;SDS011;647;48.840;9.314;2022-07-06T08:18:17;58.90;;;3.67;;
1308;SDS011;647;48.840;9.314;2022-07-06T08:20:47;59.90;;;3.90;;
1308;SDS011;647;48.840;9.314;2022-07-06T08:23:18;67.07;;;5.73;;
1308;SDS011;647;48.840;9.314;2022-07-06T08:25:45;58.27;;;3.87;;
1308;SDS011;647;48.840;9.314;2022-07-06T08:28:16;60.83;;;3.67;;
1308;SDS011;647;48.840;9.314;2022-07-06T08:30:44;59.37;;;3.77;;
1308;SDS011;647;48.840;9.314;2022-07-06T08:33:11;58.30;;;3.17;;
1308;SDS011;647;48.840;9.314;2022-07-06T08:35:39;59.50;;;3.80;;
1308;SDS011;647;48.840;9.314;2022-07-06T08:38:08;59.50;;;3.90;;
1308;SDS011;647;48.840;9.314;2022-07-06T08:40:38;59.07;;;3.67;;
1308;SDS011;647;48.840;9.314;2022-07-06T08:43:05;59.47;;;3.90;;
1308;SDS011;647;48.840;9.314;2022-07-06T08:45:34;59.30;;;3.50;;
1308;SDS011;647;48.840;9.314;2022-07-06T08:48:05;60.50;;;3.87;;
1308;SDS011;647;48.840;9.314;2022-07-06T08:50:33;59.47;;;3.80;;
1308;SDS011;647;48.840;9.314;2022-07-06T08:53:01;59.77;;;3.87;;
1308;SDS011;647;48.840;9.314;2022-07-06T08:55:29;60.10;;;4.40;;
1308;SDS011;647;48.840;9.314;2022-07-06T08:57:58;59.47;;;4.23;;
1308;SDS011;647;48.840;9.314;2022-07-06T09:00:26;61.00;;;4.10;;
1308;SDS011;647;48.840;9.314;2022-07-06T09:02:55;61.03;;;4.40;;
1308;SDS011;647;48.840;9.314;2022-07-06T09:05:24;59.23;;;3.67;;
1308;SDS011;647;48.840;9.314;2022-07-06T09:07:52;59.53;;;3.73;;
1308;SDS011;647;48.840;9.314;2022-07-06T09:10:20;58.73;;;3.50;;
1308;SDS011;647;48.840;9.314;2022-07-06T09:12:48;59.20;;;3.37;;
1308;SDS011;647;48.840;9.314;2022-07-06T09:15:16;59.93;;;4.23;;
1308;SDS011;647;48.840;9.314;2022-07-06T09:17:44;60.37;;;3.90;;
1308;SDS011;647;48.840;9.314;2022-07-06T09:20:14;62.60;;;3.80;;
1308;SDS011;647;48.840;9.314;2022-07-06T09:22:41;59.50;;;4.07;;
1308;SDS011;647;48.840;9.314;2022-07-06T09:25:12;61.67;;;4.10;;
1308;SDS011;647;48.840;9.314;2022-07-06T09:27:40;60.30;;;4.23;;
1308;SDS011;647;48.840;9.314;2022-07-06T09:30:09;59.67;;;3.93;;
1308;SDS011;647;48.840;9.314;2022-07-06T09:32:39;62.00;;;4.50;;
1308;SDS011;647;48.840;9.314;2022-07-06T09:35:08;59.13;;;3.77;;
1308;SDS011;647;48.840;9.314;2022-07-06T09:37:38;59.50;;;3.40;;
1308;SDS011;647;48.840;9.314;2022-07-06T09:40:15;59.07;;;3.20;;
1308;SDS011;647;48.840;9.314;2022-07-06T09:42:44;62.53;;;3.67;;
1308;SDS011;647;48.840;9.314;2022-07-06T09:45:14;59.60;;;3.93;;
1308;SDS011;647;48.840;9.314;2022-07-06T09:47:55;58.90;;;3.37;;
1308;SDS011;647;48.840;9.314;2022-07-06T09:50:27;58.77;;;3.40;;
1308;SDS011;647;48.840;9.314;2022-07-06T09:52:58;58.87;;;3.20;;
1308;SDS011;647;48.840;9.314;2022-07-06T10:01:32;58.70;;;3.50;;
1308;SDS011;647;48.840;9.314;2022-07-06T10:04:00;59.60;;;3.70;;
1308;SDS011;647;48.840;9.314;2022-07-06T10:06:31;59.80;;;3.60;;
1308;SDS011;647;48.840;9.314;2022-07-06T10:09:00;59.37;;;3.37;;
1308;SDS011;647;48.840;9.314;2022-07-06T10:11:29;58.57;;;2.90;;
1308;SDS011;647;48.840;9.314;2022-07-06T10:13:58;59.20;;;3.67;;
1308;SDS011;647;48.840;9.314;2022-07-06T10:16:28;58.67;;;3.23;;
1308;SDS011;647;48.840;9.314;2022-07-06T10:18:56;58.87;;;3.00;;
1308;SDS011;647;48.840;9.314;2022-07-06T10:21:24;58.40;;;3.27;;
1308;SDS011;647;48.840;9.314;2022-07-06T10:23:55;60.23;;;3.50;;
1308;SDS011;647;48.840;9.314;2022-07-06T10:26:30;58.70;;;3.17;;
1308;SDS011;647;48.840;9.314;2022-07-06T10:28:58;58.50;;;3.00;;
1308;SDS011;647;48.840;9.314;2022-07-06T10:31:30;59.40;;;3.67;;
1308;SDS011;647;48.840;9.314;2022-07-06T10:34:00;58.30;;;2.87;;
1308;SDS011;647;48.840;9.314;2022-07-06T10:36:43;58.30;;;2.87;;
1308;SDS011;647;48.840;9.314;2022-07-06T10:39:32;58.07;;;2.90;;
1308;SDS011;647;48.840;9.314;2022-07-06T10:45:02;59.37;;;3.40;;
1308;SDS011;647;48.840;9.314;2022-07-06T10:47:29;59.40;;;2.73;;
1308;SDS011;647;48.840;9.314;2022-07-06T10:50:06;58.80;;;2.80;;
1308;SDS011;647;48.840;9.314;2022-07-06T10:52:47;58.30;;;2.73;;
1308;SDS011;647;48.840;9.314;2022-07-06T10:55:27;59.60;;;3.43;;
1308;SDS011;647;48.840;9.314;2022-07-06T10:57:55;59.10;;;2.70;;
1308;SDS011;647;48.840;9.314;2022-07-06T11:00:24;58.10;;;2.83;;
1308;SDS011;647;48.840;9.314;2022-07-06T11:02:52;59.60;;;3.10;;
1308;SDS011;647;48.840;9.314;2022-07-06T11:08:09;58.07;;;2.97;;
1308;SDS011;647;48.840;9.314;2022-07-06T11:10:46;58.23;;;2.90;;
1308;SDS011;647;48.840;9.314;2022-07-06T11:13:26;60.57;;;2.93;;
1308;SDS011;647;48.840;9.314;2022-07-06T11:16:01;58.00;;;3.00;;
1308;SDS011;647;48.840;9.314;2022-07-06T11:18:38;58.27;;;2.83;;
1308;SDS011;647;48.840;9.314;2022-07-06T11:21:16;58.83;;;2.60;;
1308;SDS011;647;48.840;9.314;2022-07-06T11:23:46;59.80;;;2.67;;
1308;SDS011;647;48.840;9.314;2022-07-06T11:26:14;58.10;;;2.83;;
1308;SDS011;647;48.840;9.314;2022-07-06T11:28:41;58.23;;;2.87;;
1308;SDS011;647;48.840;9.314;2022-07-06T11:31:13;59.90;;;3.17;;
1308;SDS011;647;48.840;9.314;2022-07-06T11:33:40;59.27;;;3.10;;
1308;SDS011;647;48.840;9.314;2022-07-06T11:36:13;59.13;;;3.37;;
1308;SDS011;647;48.840;9.314;2022-07-06T11:38:42;58.30;;;2.80;;
1308;SDS011;647;48.840;9.314;2022-07-06T11:41:11;59.27;;;3.27;;
1308;SDS011;647;48.840;9.314;2022-07-06T11:43:39;59.00;;;2.80;;
1308;SDS011;647;48.840;9.314;2022-07-06T11:46:19;59.40;;;3.40;;
1308;SDS011;647;48.840;9.314;2022-07-06T11:48:47;58.17;;;2.77;;
1308;SDS011;647;48.840;9.314;2022-07-06T11:51:15;64.10;;;3.00;;
1308;SDS011;647;48.840;9.314;2022-07-06T11:53:44;60.10;;;3.20;;
1308;SDS011;647;48.840;9.314;2022-07-06T11:56:12;57.90;;;2.70;;
1308;SDS011;647;48.840;9.314;2022-07-06T12:01:30;60.60;;;2.93;;
1308;SDS011;647;48.840;9.314;2022-07-06T12:04:02;58.30;;;2.80;;
1308;SDS011;647;48.840;9.314;2022-07-06T12:06:29;58.50;;;3.30;;
1308;SDS011;647;48.840;9.314;2022-07-06T12:08:58;58.00;;;2.90;;
1308;SDS011;647;48.840;9.314;2022-07-06T12:11:30;59.93;;;3.13;;
1308;SDS011;647;48.840;9.314;2022-07-06T12:14:00;57.80;;;2.57;;
1308;SDS011;647;48.840;9.314;2022-07-06T12:16:32;58.80;;;2.90;;
1308;SDS011;647;48.840;9.314;2022-07-06T12:19:00;61.07;;;2.80;;
1308;SDS011;647;48.840;9.314;2022-07-06T12:21:27;58.60;;;3.30;;
1308;SDS011;647;48.840;9.314;2022-07-06T12:23:57;58.40;;;2.90;;
1308;SDS011;647;48.840;9.314;2022-07-06T12:26:26;60.40;;;3.40;;
1308;SDS011;647;48.840;9.314;2022-07-06T12:29:01;58.80;;;3.00;;
1308;SDS011;647;48.840;9.314;2022-07-06T12:31:32;60.70;;;3.10;;
1308;SDS011;647;48.840;9.314;2022-07-06T12:34:01;59.57;;;3.20;;
1308;SDS011;647;48.840;9.314;2022-07-06T12:36:28;59.40;;;3.20;;
1308;SDS011;647;48.840;9.314;2022-07-06T12:38:55;59.10;;;3.23;;
1308;SDS011;647;48.840;9.314;2022-07-06T12:41:33;59.53;;;3.30;;
1308;SDS011;647;48.840;9.314;2022-07-06T12:44:03;59.17;;;2.90;;
1308;SDS011;647;48.840;9.314;2022-07-06T12:46:35;59.57;;;3.40;;
1308;SDS011;647;48.840;9.314;2022-07-06T12:49:13;59.97;;;2.87;;
1308;SDS011;647;48.840;9.314;2022-07-06T12:51:54;59.00;;;3.30;;
1308;SDS011;647;48.840;9.314;2022-07-06T12:54:23;58.10;;;2.90;;
1308;SDS011;647;48.840;9.314;2022-07-06T12:57:04;61.73;;;3.60;;
1308;SDS011;647;48.840;9.314;2022-07-06T12:59:34;58.97;;;3.07;;
1308;SDS011;647;48.840;9.314;2022-07-06T13:02:03;59.20;;;3.20;;
1308;SDS011;647;48.840;9.314;2022-07-06T13:04:31;60.50;;;3.27;;
1308;SDS011;647;48.840;9.314;2022-07-06T13:06:59;59.27;;;2.83;;
1308;SDS011;647;48.840;9.314;2022-07-06T13:09:27;60.37;;;3.67;;
1308;SDS011;647;48.840;9.314;2022-07-06T13:11:56;58.67;;;3.40;;
1308;SDS011;647;48.840;9.314;2022-07-06T13:14:24;58.37;;;2.87;;
1308;SDS011;647;48.840;9.314;2022-07-06T13:16:53;59.30;;;2.70;;
1308;SDS011;647;48.840;9.314;2022-07-06T13:19:23;61.77;;;3.17;;
1308;SDS011;647;48.840;9.314;2022-07-06T13:21:50;61.23;;;4.07;;
1308;SDS011;647;48.840;9.314;2022-07-06T13:24:18;58.37;;;3.03;;
1308;SDS011;647;48.840;9.314;2022-07-06T13:26:46;58.57;;;2.77;;
1308;SDS011;647;48.840;9.314;2022-07-06T13:29:13;58.53;;;3.10;;
1308;SDS011;647;48.840;9.314;2022-07-06T13:31:41;59.00;;;3.53;;
1308;SDS011;647;48.840;9.314;2022-07-06T13:34:08;58.77;;;3.37;;
1308;SDS011;647;48.840;9.314;2022-07-06T13:36:36;58.10;;;2.70;;
1308;SDS011;647;48.840;9.314;2022-07-06T13:39:04;58.20;;;2.40;;
1308;SDS011;647;48.840;9.314;2022-07-06T13:41:36;58.33;;;3.10;;
1308;SDS011;647;48.840;9.314;2022-07-06T13:44:04;62.57;;;3.07;;
1308;SDS011;647;48.840;9.314;2022-07-06T13:46:32;58.50;;;3.10;;
1308;SDS011;647;48.840;9.314;2022-07-06T13:49:02;57.80;;;2.50;;
1308;SDS011;647;48.840;9.314;2022-07-06T13:51:29;57.80;;;2.77;;
1308;SDS011;647;48.840;9.314;2022-07-06T13:53:59;57.60;;;2.50;;
1308;SDS011;647;48.840;9.314;2022-07-06T13:56:27;61.17;;;3.00;;
1308;SDS011;647;48.840;9.314;2022-07-06T13:58:58;58.27;;;2.93;;
1308;SDS011;647;48.840;9.314;2022-07-06T14:01:28;60.67;;;2.90;;
1308;SDS011;647;48.840;9.314;2022-07-06T14:03:55;59.17;;;2.73;;
1308;SDS011;647;48.840;9.314;2022-07-06T14:06:23;58.43;;;2.83;;
1308;SDS011;647;48.840;9.314;2022-07-06T14:08:52;57.80;;;2.67;;
1308;SDS011;647;48.840;9.314;2022-07-06T14:11:22;61.77;;;3.00;;
1308;SDS011;647;48.840;9.314;2022-07-06T14:13:50;57.70;;;2.40;;
1308;SDS011;647;48.840;9.314;2022-07-06T14:16:19;58.00;;;2.57;;
1308;SDS011;647;48.840;9.314;2022-07-06T14:18:47;58.10;;;2.70;;
1308;SDS011;647;48.840;9.314;2022-07-06T14:21:16;58.00;;;2.67;;
1308;SDS011;647;48.840;9.314;2022-07-06T14:23:44;57.90;;;2.70;;
1308;SDS011;647;48.840;9.314;2022-07-06T14:26:11;60.00;;;2.63;;
1308;SDS011;647;48.840;9.314;2022-07-06T14:28:42;58.40;;;2.60;;
1308;SDS011;647;48.840;9.314;2022-07-06T14:31:09;58.20;;;2.60;;
1308;SDS011;647;48.840;9.314;2022-07-06T14:33:37;58.50;;;2.70;;
1308;SDS011;647;48.840;9.314;2022-07-06T14:36:04;58.90;;;3.20;;
1308;SDS011;647;48.840;9.314;2022-07-06T14:38:31;57.27;;;2.40;;
1308;SDS011;647;48.840;9.314;2022-07-06T14:40:59;57.80;;;2.87;;
1308;SDS011;647;48.840;9.314;2022-07-06T14:43:26;62.50;;;2.83;;
1308;SDS011;647;48.840;9.314;2022-07-06T14:45:55;58.30;;;2.63;;
1308;SDS011;647;48.840;9.314;2022-07-06T14:48:22;57.60;;;2.37;;
1308;SDS011;647;48.840;9.314;2022-07-06T14:50:49;57.87;;;2.67;;
1308;SDS011;647;48.840;9.314;2022-07-06T14:53:17;58.00;;;2.30;;
1308;SDS011;647;48.840;9.314;2022-07-06T14:55:46;57.70;;;2.60;;
1308;SDS011;647;48.840;9.314;2022-07-06T14:58:14;57.53;;;2.50;;
1308;SDS011;647;48.840;9.314;2022-07-06T15:00:42;58.27;;;2.40;;
1308;SDS011;647;48.840;9.314;2022-07-06T15:03:11;57.87;;;2.50;;
1308;SDS011;647;48.840;9.314;2022-07-06T15:05:38;58.00;;;2.20;;
1308;SDS011;647;48.840;9.314;2022-07-06T15:08:08;60.00;;;2.50;;
1308;SDS011;647;48.840;9.314;2022-07-06T15:10:35;58.33;;;2.60;;
1308;SDS011;647;48.840;9.314;2022-07-06T15:13:03;57.90;;;2.37;;
1308;SDS011;647;48.840;9.314;2022-07-06T15:15:31;58.30;;;2.93;;
1308;SDS011;647;48.840;9.314;2022-07-06T15:17:58;57.17;;;2.30;;
1308;SDS011;647;48.840;9.314;2022-07-06T15:20:27;58.77;;;3.03;;
1308;SDS011;647;48.840;9.314;2022-07-06T15:22:54;57.60;;;2.40;;
1308;SDS011;647;48.840;9.314;2022-07-06T15:25:21;59.20;;;2.40;;
1308;SDS011;647;48.840;9.314;2022-07-06T15:27:50;58.30;;;2.80;;
1308;SDS011;647;48.840;9.314;2022-07-06T15:30:17;60.37;;;2.63;;
1308;SDS011;647;48.840;9.314;2022-07-06T15:32:44;57.80;;;2.60;;
1308;SDS011;647;48.840;9.314;2022-07-06T15:35:12;57.83;;;2.70;;
1308;SDS011;647;48.840;9.314;2022-07-06T15:37:43;59.87;;;2.63;;
1308;SDS011;647;48.840;9.314;2022-07-06T15:40:10;57.87;;;2.50;;